首页
METAR-TAF:

METAR-TAF

机场 :

柯克沃爾機場

柯克沃尔, 苏格兰

纬度: 58-57N, 经度: 002-54W, 海拔: 21米

当前天气观测

该预报发布于38分钟前的18:50 UTC
风速17节,风向南转西南
温度 3°C
湿度 87%
气压 995 hPa
能见度10公里或以上
少量云层高于2600英尺

METAR: EGPA 181850Z 21017KT 9999 FEW026 03/01 Q0995

时间: 19:28 (19:28 UTC)

预报

该预报发布于1小时和15分钟前的18:13 UTC
预报有效从18日的 18点(UTC)到 19日的 03点(UTC)
风速18节,风向西转西南
能见度10公里或以上
散云层高于2200英尺
短暂存在
从 18日的 18点(UTC)到 19日的 03点(UTC)
风速22节,风向西,有时为32节阵风
能見度: 6000
多云层高于1200英尺, 积雨云.
阵雨
几率 30% :
短暂存在
从 18日的 18点(UTC)到 19日的 03点(UTC)
能見度: 3000
多云层高于800英尺
大阵雨, 小冰雹或雪球

TAF: EGPA 181813Z 1818/1903 24018KT 9999 SCT022 TEMPO 1818/1903 27022G32KT 6000 SHRA BKN012CB PROB30 TEMPO 1818/1903 3000 +SHRAGS BKN008

超过4000个机场的气象观测和天气预报(METAR&TAF报告)。

可查询的气象台以黄色和红色小点在地图上表示。

将鼠标移到小点上方,可查看气象台名称。

然后点击查看天气观测和预报。

如需切换地图:点击带黑十字的绿色按钮放大地图;点击带横线的绿色按钮缩小地图;或者点击绿色箭头查看邻近地区的地图。


METAR-TAF: